Shirley, Indiana
Current Conditions -  °F | °C
As of 5:55 AM on Friday 21 Nov 2014 (Local Time) from KMQJ Reporting Station
Clear Clear  
Wind Chill: 12°   Ceiling: Unl
Heat Index: 12°   Visibility: 10mi
Dew Point:   Wind: 0mph
Humidity: 62%   Direction: NA
Pressure: 30.41"   Gusts: NA
Location:  39.89°N, 85.58°W
Report Text: KMQJ 211055Z AUTO 00000KT 10SM CLR M11/M17 A3041 RMK AO1
Loading
Personal Weather Stations






























Interactive Weather Map New forecast layout! Learn more

10-Day Weather Forecast

Advertisements
Track Severe Weather on mobile